createdAt,value
2023-02-12T00:00:32.522Z,100.00
2023-02-12T00:03:02.340Z,100.00
2023-02-12T00:05:35.665Z,100.00
2023-02-12T00:08:05.453Z,100.00
2023-02-12T00:10:35.324Z,100.00
2023-02-12T00:13:05.090Z,100.00
2023-02-12T00:15:34.955Z,100.00
2023-02-12T00:18:04.784Z,100.00
2023-02-12T00:20:37.291Z,100.00
2023-02-12T00:23:07.796Z,100.00
2023-02-12T00:25:37.618Z,100.00
2023-02-12T00:28:07.475Z,100.00
2023-02-12T00:30:38.152Z,100.00
2023-02-12T00:33:07.924Z,100.00
2023-02-12T00:35:40.310Z,100.00
2023-02-12T00:38:10.339Z,99.84
2023-02-12T00:40:40.173Z,100.00
2023-02-12T00:43:09.918Z,99.97
2023-02-12T00:45:39.716Z,99.83
2023-02-12T00:48:09.745Z,99.82
2023-02-12T00:50:42.249Z,99.79
2023-02-12T00:53:12.122Z,99.89
2023-02-12T00:55:41.896Z,99.92
2023-02-12T00:58:12.712Z,99.79
2023-02-12T01:00:42.584Z,99.82
2023-02-12T01:03:12.362Z,100.00
2023-02-12T01:05:45.257Z,99.95
2023-02-12T01:08:15.933Z,99.85
2023-02-12T01:10:49.540Z,100.00
2023-02-12T01:13:19.534Z,100.00
2023-02-12T01:15:49.361Z,100.00
2023-02-12T01:18:19.286Z,100.00
2023-02-12T01:20:51.656Z,100.00
2023-02-12T01:23:21.483Z,100.00
2023-02-12T01:25:51.241Z,100.00
2023-02-12T01:28:21.281Z,100.00
2023-02-12T01:30:51.327Z,100.00
2023-02-12T01:33:21.239Z,100.00
2023-02-12T01:35:53.974Z,100.00
2023-02-12T01:38:23.899Z,100.00
2023-02-12T01:40:53.731Z,100.00
2023-02-12T01:43:23.516Z,99.93
2023-02-12T01:45:58.126Z,99.84
2023-02-12T01:48:31.158Z,99.92
2023-02-12T01:51:05.395Z,99.77
2023-02-12T01:53:39.591Z,99.81
2023-02-12T01:56:09.965Z,99.95
2023-02-12T01:58:43.319Z,99.97
2023-02-12T02:01:18.677Z,99.91
2023-02-12T02:03:51.076Z,99.91
2023-02-12T02:06:28.362Z,100.00
2023-02-12T02:08:59.754Z,100.00
2023-02-12T02:11:42.105Z,100.00
2023-02-12T02:14:24.277Z,100.00
2023-02-12T02:17:04.336Z,100.00
2023-02-12T02:19:48.730Z,99.67
2023-02-12T02:22:29.809Z,99.53
2023-02-12T02:25:29.520Z,99.33
2023-02-12T02:28:10.071Z,99.54
2023-02-12T02:30:51.412Z,99.35
2023-02-12T02:33:37.203Z,99.68
2023-02-12T02:36:20.326Z,99.54
2023-02-12T02:38:57.365Z,99.75
2023-02-12T02:41:34.401Z,99.82
2023-02-12T02:44:08.134Z,99.71
2023-02-12T02:46:45.040Z,99.49
2023-02-12T02:49:32.331Z,98.86
2023-02-12T02:52:06.804Z,99.11
2023-02-12T02:54:41.753Z,99.34
2023-02-12T02:57:16.606Z,99.18
2023-02-12T02:59:50.701Z,99.59
2023-02-12T03:02:28.056Z,99.23
2023-02-12T03:05:01.446Z,99.40
2023-02-12T03:07:34.666Z,99.77
2023-02-12T03:10:07.609Z,99.26
2023-02-12T03:12:42.239Z,99.32
2023-02-12T03:15:21.203Z,99.38
2023-02-12T03:17:54.138Z,99.51
2023-02-12T03:20:28.326Z,99.65
2023-02-12T03:23:03.789Z,99.65
2023-02-12T03:25:38.345Z,99.42
2023-02-12T03:28:12.893Z,99.35
2023-02-12T03:30:51.710Z,99.23
2023-02-12T03:33:33.052Z,99.15
2023-02-12T03:36:08.854Z,99.38
2023-02-12T03:38:43.928Z,99.35
2023-02-12T03:41:21.191Z,99.63
2023-02-12T03:43:56.031Z,99.73
2023-02-12T03:46:31.327Z,99.74
2023-02-12T03:49:10.145Z,99.40
2023-02-12T03:51:42.549Z,99.85
2023-02-12T03:54:16.220Z,99.77
2023-02-12T03:56:52.342Z,99.64
2023-02-12T03:59:22.661Z,99.65
2023-02-12T04:01:56.223Z,99.72
2023-02-12T04:04:30.210Z,99.40
2023-02-12T04:07:00.894Z,99.48
2023-02-12T04:09:31.986Z,99.53
2023-02-12T04:12:18.255Z,99.39
2023-02-12T04:14:55.832Z,99.67
2023-02-12T04:17:33.377Z,99.23
2023-02-12T04:20:14.088Z,99.44
2023-02-12T04:22:52.697Z,99.71
2023-02-12T04:25:37.061Z,99.47
2023-02-12T04:28:16.231Z,99.82
2023-02-12T04:30:50.690Z,99.90
2023-02-12T04:33:24.679Z,99.88
2023-02-12T04:36:03.633Z,99.55
2023-02-12T04:38:39.219Z,99.67
2023-02-12T04:41:12.573Z,99.78
2023-02-12T04:43:42.366Z,99.60
2023-02-12T04:46:12.470Z,99.68
2023-02-12T04:48:53.960Z,99.69
2023-02-12T04:51:26.628Z,99.89
2023-02-12T04:53:56.431Z,99.81
2023-02-12T04:56:26.475Z,100.00
2023-02-12T04:58:57.937Z,100.00
2023-02-12T05:01:30.961Z,100.00
2023-02-12T05:04:01.357Z,100.00
2023-02-12T05:06:34.402Z,100.00
2023-02-12T05:09:04.322Z,100.00
2023-02-12T05:11:34.548Z,100.00
2023-02-12T05:14:04.570Z,100.00
2023-02-12T05:16:35.384Z,100.00
2023-02-12T05:19:05.233Z,99.87
2023-02-12T05:21:37.612Z,99.92
2023-02-12T05:24:08.065Z,99.79
2023-02-12T05:26:38.492Z,99.89
2023-02-12T05:29:08.297Z,99.76
2023-02-12T05:31:38.558Z,99.73
2023-02-12T05:34:10.049Z,99.91
2023-02-12T05:36:43.189Z,99.97
2023-02-12T05:39:14.309Z,99.69
2023-02-12T05:41:44.245Z,99.98
2023-02-12T05:44:15.366Z,100.00
2023-02-12T05:46:45.702Z,100.00
2023-02-12T05:49:15.562Z,99.96
2023-02-12T05:51:48.054Z,100.00
2023-02-12T05:54:17.825Z,100.00
2023-02-12T05:56:49.853Z,100.00
2023-02-12T05:59:22.015Z,100.00
2023-02-12T06:01:53.510Z,100.00
2023-02-12T06:04:25.802Z,100.00
2023-02-12T06:06:59.883Z,100.00
2023-02-12T06:09:30.210Z,100.00
2023-02-12T06:11:59.978Z,100.00
2023-02-12T06:14:31.879Z,100.00
2023-02-12T06:17:02.280Z,100.00
2023-02-12T06:19:32.046Z,100.00
2023-02-12T06:22:04.414Z,100.00
2023-02-12T06:24:34.286Z,100.00
2023-02-12T06:27:04.062Z,100.00
2023-02-12T06:29:33.856Z,100.00
2023-02-12T06:32:03.890Z,100.00
2023-02-12T06:34:33.865Z,100.00
2023-02-12T06:37:06.251Z,100.00
2023-02-12T06:39:36.094Z,100.00
2023-02-12T06:42:06.007Z,100.00
2023-02-12T06:44:35.896Z,100.00
2023-02-12T06:47:05.661Z,100.00
2023-02-12T06:49:35.544Z,100.00
2023-02-12T06:52:08.021Z,100.00
2023-02-12T06:54:37.807Z,100.00
2023-02-12T06:57:07.593Z,100.00
2023-02-12T06:59:37.542Z,100.00
2023-02-12T07:02:07.327Z,100.00
2023-02-12T07:04:37.925Z,100.00
2023-02-12T07:07:10.704Z,100.00
2023-02-12T07:09:40.488Z,100.00
2023-02-12T07:12:10.899Z,100.00
2023-02-12T07:14:40.897Z,100.00
2023-02-12T07:17:10.711Z,100.00
2023-02-12T07:19:40.673Z,100.00
2023-02-12T07:22:12.996Z,100.00
2023-02-12T07:24:43.659Z,100.00
2023-02-12T07:27:13.453Z,100.00
2023-02-12T07:29:43.242Z,100.00
2023-02-12T07:32:13.242Z,100.00
2023-02-12T07:34:43.086Z,100.00
2023-02-12T07:37:15.662Z,100.00
2023-02-12T07:39:45.411Z,100.00
2023-02-12T07:42:15.280Z,100.00
2023-02-12T07:44:45.083Z,100.00
2023-02-12T07:47:15.883Z,100.00
2023-02-12T07:49:45.624Z,100.00
2023-02-12T07:52:18.341Z,100.00
2023-02-12T07:54:48.359Z,100.00
2023-02-12T07:57:18.387Z,100.00
2023-02-12T07:59:48.201Z,100.00
2023-02-12T08:02:18.101Z,100.00
2023-02-12T08:04:47.965Z,100.00
2023-02-12T08:07:20.465Z,100.00
2023-02-12T08:09:51.150Z,100.00
2023-02-12T08:12:21.762Z,100.00
2023-02-12T08:14:51.565Z,100.00
2023-02-12T08:17:21.318Z,100.00
2023-02-12T08:19:51.127Z,100.00
2023-02-12T08:22:23.580Z,100.00
2023-02-12T08:24:53.382Z,100.00
2023-02-12T08:27:23.193Z,100.00
2023-02-12T08:29:52.974Z,100.00
2023-02-12T08:32:22.766Z,100.00
2023-02-12T08:34:52.997Z,100.00
2023-02-12T08:37:25.392Z,100.00
2023-02-12T08:39:55.246Z,100.00
2023-02-12T08:42:25.833Z,100.00
2023-02-12T08:44:55.784Z,100.00
2023-02-12T08:47:26.311Z,100.00
2023-02-12T08:49:56.099Z,100.00
2023-02-12T08:52:28.889Z,100.00
2023-02-12T08:54:58.727Z,100.00
2023-02-12T08:57:28.893Z,100.00
2023-02-12T08:59:58.988Z,100.00
2023-02-12T09:02:29.009Z,100.00
2023-02-12T09:04:58.924Z,100.00
2023-02-12T09:07:31.398Z,100.00
2023-02-12T09:10:01.198Z,100.00
2023-02-12T09:12:31.009Z,100.00
2023-02-12T09:15:00.787Z,100.00
2023-02-12T09:17:30.774Z,100.00
2023-02-12T09:20:01.575Z,100.00
2023-02-12T09:22:34.207Z,100.00
2023-02-12T09:25:03.951Z,100.00
2023-02-12T09:27:33.799Z,100.00
2023-02-12T09:30:03.549Z,100.00
2023-02-12T09:32:33.527Z,100.00
2023-02-12T09:35:03.329Z,100.00
2023-02-12T09:37:35.771Z,100.00
2023-02-12T09:40:05.472Z,100.00
2023-02-12T09:42:57.982Z,100.00
2023-02-12T09:45:33.298Z,100.00
2023-02-12T09:48:14.768Z,100.00
2023-02-12T09:50:53.326Z,100.00
2023-02-12T09:53:30.767Z,100.00
2023-02-12T09:56:00.738Z,100.00
2023-02-12T09:58:36.754Z,98.91
2023-02-12T10:01:14.588Z,97.58
2023-02-12T10:03:45.242Z,98.33
2023-02-12T10:06:19.133Z,97.20
2023-02-12T10:09:02.514Z,96.41
2023-02-12T10:11:46.459Z,96.18
2023-02-12T10:14:30.643Z,95.95
2023-02-12T10:17:07.003Z,96.05
2023-02-12T10:20:01.202Z,94.31
2023-02-12T10:22:56.207Z,95.71
2023-02-12T10:25:34.524Z,95.34
2023-02-12T10:28:12.339Z,94.97
2023-02-12T10:30:47.131Z,95.03
2023-02-12T10:33:22.376Z,94.92
2023-02-12T10:35:56.657Z,94.65
2023-02-12T10:38:33.268Z,94.73
2023-02-12T10:41:05.711Z,94.22
2023-02-12T10:43:35.864Z,93.54
2023-02-12T10:46:06.268Z,92.57
2023-02-12T10:48:40.955Z,92.28
2023-02-12T10:51:28.409Z,89.54
2023-02-12T10:53:58.761Z,91.44
2023-02-12T10:56:31.306Z,91.41
2023-02-12T10:59:03.169Z,90.67
2023-02-12T11:01:34.594Z,91.57
2023-02-12T11:04:27.561Z,88.87
2023-02-12T11:07:03.740Z,90.27
2023-02-12T11:09:40.848Z,90.65
2023-02-12T11:12:22.892Z,89.12
2023-02-12T11:14:55.814Z,88.79
2023-02-12T11:17:29.935Z,88.03
2023-02-12T11:20:09.880Z,87.43
2023-02-12T11:22:40.082Z,89.43
2023-02-12T11:25:18.589Z,87.44
2023-02-12T11:28:03.133Z,85.11
2023-02-12T11:30:33.748Z,87.83
2023-02-12T11:33:19.706Z,86.65
2023-02-12T11:35:54.868Z,87.72
2023-02-12T11:38:31.297Z,86.43
2023-02-12T11:41:05.180Z,88.18
2023-02-12T11:43:40.237Z,86.94
2023-02-12T11:46:11.220Z,86.99
2023-02-12T11:48:44.408Z,86.21
2023-02-12T11:51:22.806Z,86.23
2023-02-12T11:53:55.246Z,86.74
2023-02-12T11:56:25.667Z,86.85
2023-02-12T11:59:15.988Z,84.46
2023-02-12T12:01:46.506Z,84.85
2023-02-12T12:04:20.626Z,85.61
2023-02-12T12:06:54.745Z,83.03
2023-02-12T12:09:29.683Z,82.07
2023-02-12T12:12:14.950Z,84.35
2023-02-12T12:15:04.237Z,83.60
2023-02-12T12:17:57.318Z,85.17
2023-02-12T12:20:31.230Z,83.75
2023-02-12T12:23:05.680Z,83.69
2023-02-12T12:25:43.460Z,83.47
2023-02-12T12:28:30.977Z,81.85
2023-02-12T12:31:09.857Z,82.34
2023-02-12T12:33:46.167Z,83.15
2023-02-12T12:36:55.157Z,81.96
2023-02-12T12:39:31.669Z,83.60
2023-02-12T12:42:28.255Z,83.87
2023-02-12T12:45:42.677Z,81.82
2023-02-12T12:48:26.153Z,82.07
2023-02-12T12:51:16.942Z,81.10
2023-02-12T12:53:58.037Z,83.22
2023-02-12T12:57:08.314Z,81.07
2023-02-12T13:00:01.659Z,81.49
2023-02-12T13:03:16.892Z,82.15
2023-02-12T13:06:19.923Z,79.38
2023-02-12T13:09:05.909Z,80.82
2023-02-12T13:11:45.525Z,81.63
2023-02-12T13:14:30.572Z,81.46
2023-02-12T13:17:09.271Z,81.68
2023-02-12T13:19:49.866Z,81.70
2023-02-12T13:22:26.905Z,82.27
2023-02-12T13:25:08.320Z,82.00
2023-02-12T13:27:40.900Z,82.26
2023-02-12T13:30:22.217Z,79.89
2023-02-12T13:33:01.964Z,79.88
2023-02-12T13:35:34.449Z,80.03
2023-02-12T13:38:06.501Z,80.62
2023-02-12T13:40:39.274Z,80.90
2023-02-12T13:43:23.160Z,82.04
2023-02-12T13:46:02.236Z,81.64
2023-02-12T13:48:44.249Z,80.92
2023-02-12T13:51:31.330Z,79.13
2023-02-12T13:54:15.810Z,80.17
2023-02-12T13:56:51.358Z,79.43
2023-02-12T13:59:44.612Z,79.26
2023-02-12T14:02:52.898Z,79.64
2023-02-12T14:05:26.718Z,81.25
2023-02-12T14:07:59.385Z,80.57
2023-02-12T14:10:33.625Z,79.69
2023-02-12T14:13:19.824Z,78.42
2023-02-12T14:15:53.317Z,80.69
2023-02-12T14:18:35.866Z,78.06
2023-02-12T14:21:45.345Z,78.32
2023-02-12T14:24:54.046Z,79.23
2023-02-12T14:27:32.029Z,80.24
2023-02-12T14:30:30.953Z,78.59
2023-02-12T14:33:11.884Z,80.38
2023-02-12T14:35:42.826Z,80.21
2023-02-12T14:38:47.526Z,78.23
2023-02-12T14:41:38.027Z,80.01
2023-02-12T14:44:41.743Z,78.20
2023-02-12T14:47:55.689Z,77.96
2023-02-12T14:50:34.452Z,78.86
2023-02-12T14:53:15.080Z,79.55
2023-02-12T14:55:49.777Z,79.70
2023-02-12T14:58:22.933Z,79.97
2023-02-12T15:00:56.711Z,80.13
2023-02-12T15:03:35.487Z,79.75
2023-02-12T15:06:12.733Z,79.80
2023-02-12T15:08:51.783Z,79.03
2023-02-12T15:11:32.769Z,79.08
2023-02-12T15:14:07.546Z,80.31
2023-02-12T15:16:47.770Z,80.18
2023-02-12T15:19:33.501Z,79.93
2023-02-12T15:22:03.394Z,80.70
2023-02-12T15:24:33.325Z,80.43
2023-02-12T15:27:03.935Z,80.38
2023-02-12T15:29:39.672Z,80.04
2023-02-12T15:32:12.757Z,80.06
2023-02-12T15:34:45.684Z,80.07
2023-02-12T15:37:23.930Z,80.50
2023-02-12T15:39:57.128Z,80.99
2023-02-12T15:42:34.246Z,80.75
2023-02-12T15:45:23.124Z,79.57
2023-02-12T15:48:21.561Z,79.37
2023-02-12T15:50:58.817Z,80.72
2023-02-12T15:53:31.199Z,81.06
2023-02-12T15:56:03.226Z,80.40
2023-02-12T15:58:35.916Z,80.83
2023-02-12T16:01:07.680Z,80.83
2023-02-12T16:03:39.694Z,80.75
2023-02-12T16:06:16.944Z,80.27
2023-02-12T16:08:51.380Z,80.77
2023-02-12T16:11:25.333Z,80.96
2023-02-12T16:13:57.646Z,80.92
2023-02-12T16:16:30.323Z,81.05
2023-02-12T16:19:10.089Z,80.30
2023-02-12T16:21:42.796Z,80.96
2023-02-12T16:24:26.233Z,80.32
2023-02-12T16:26:56.389Z,81.43
2023-02-12T16:29:26.747Z,81.48
2023-02-12T16:32:02.002Z,81.21
2023-02-12T16:34:35.440Z,81.39
2023-02-12T16:37:44.821Z,80.80
2023-02-12T16:40:36.973Z,80.51
2023-02-12T16:43:29.141Z,80.95
2023-02-12T16:46:08.025Z,80.69
2023-02-12T16:48:42.532Z,81.22
2023-02-12T16:51:25.030Z,80.83
2023-02-12T16:53:58.806Z,81.51
2023-02-12T16:56:32.784Z,81.73
2023-02-12T16:59:05.322Z,81.99
2023-02-12T17:01:37.584Z,82.41
2023-02-12T17:04:10.597Z,82.51
2023-02-12T17:06:40.490Z,82.44
2023-02-12T17:09:13.521Z,82.27
2023-02-12T17:11:43.845Z,82.69
2023-02-12T17:14:19.036Z,82.39
2023-02-12T17:16:50.518Z,82.72
2023-02-12T17:19:20.483Z,82.17
2023-02-12T17:21:52.063Z,82.48
2023-02-12T17:24:26.404Z,82.48
2023-02-12T17:26:57.160Z,82.44
2023-02-12T17:29:28.327Z,82.54
2023-02-12T17:31:58.563Z,82.53
2023-02-12T17:34:32.080Z,82.43
2023-02-12T17:37:10.184Z,82.68
2023-02-12T17:39:42.842Z,82.73
2023-02-12T17:42:12.698Z,82.78
2023-02-12T17:44:43.004Z,82.71
2023-02-12T17:47:13.090Z,82.89
2023-02-12T17:49:43.341Z,83.41
2023-02-12T17:52:13.315Z,82.91
2023-02-12T17:54:47.918Z,82.82
2023-02-12T17:57:18.726Z,82.84
2023-02-12T17:59:48.588Z,82.82
2023-02-12T18:02:18.468Z,83.14
2023-02-12T18:04:48.359Z,83.23
2023-02-12T18:07:18.401Z,83.24
2023-02-12T18:09:51.483Z,83.04
2023-02-12T18:12:21.418Z,83.41
2023-02-12T18:14:51.378Z,83.29
2023-02-12T18:17:21.171Z,83.61
2023-02-12T18:19:52.504Z,83.55
2023-02-12T18:22:22.913Z,84.03
2023-02-12T18:24:56.006Z,83.37
2023-02-12T18:27:25.917Z,83.49
2023-02-12T18:29:57.196Z,83.72
2023-02-12T18:32:27.373Z,83.71
2023-02-12T18:34:57.308Z,83.78
2023-02-12T18:37:27.172Z,83.89
2023-02-12T18:40:00.428Z,83.82
2023-02-12T18:42:32.848Z,83.84
2023-02-12T18:45:02.694Z,84.08
2023-02-12T18:47:32.516Z,84.11
2023-02-12T18:50:02.451Z,84.32
2023-02-12T18:52:32.255Z,84.43
2023-02-12T18:55:04.654Z,84.12
2023-02-12T18:57:34.511Z,84.74
2023-02-12T19:00:05.087Z,84.63
2023-02-12T19:02:34.954Z,84.85
2023-02-12T19:05:04.821Z,84.85
2023-02-12T19:07:34.598Z,85.01
2023-02-12T19:10:07.629Z,84.87
2023-02-12T19:12:37.484Z,85.13
2023-02-12T19:15:08.914Z,85.02
2023-02-12T19:17:38.757Z,85.21
2023-02-12T19:20:10.313Z,85.13
2023-02-12T19:22:40.754Z,85.33
2023-02-12T19:25:13.585Z,85.39
2023-02-12T19:27:43.533Z,85.24
2023-02-12T19:30:14.890Z,85.55
2023-02-12T19:32:44.766Z,85.33
2023-02-12T19:35:14.755Z,85.65
2023-02-12T19:37:44.916Z,85.71
2023-02-12T19:40:17.946Z,85.84
2023-02-12T19:42:47.738Z,85.93
2023-02-12T19:45:18.077Z,86.00
2023-02-12T19:47:47.936Z,86.01
2023-02-12T19:50:17.734Z,86.19
2023-02-12T19:52:47.461Z,86.20
2023-02-12T19:55:20.067Z,86.09
2023-02-12T19:57:50.160Z,86.15
2023-02-12T20:00:20.288Z,86.39
2023-02-12T20:02:50.433Z,86.78
2023-02-12T20:05:20.383Z,86.62
2023-02-12T20:07:50.235Z,86.69
2023-02-12T20:10:23.046Z,86.65
2023-02-12T20:12:52.871Z,86.52
2023-02-12T20:15:25.583Z,86.76
2023-02-12T20:17:56.235Z,86.71
2023-02-12T20:20:26.251Z,87.29
2023-02-12T20:22:56.399Z,87.12
2023-02-12T20:25:30.209Z,87.49
2023-02-12T20:28:01.632Z,87.35
2023-02-12T20:30:31.630Z,87.63
2023-02-12T20:33:01.469Z,87.70
2023-02-12T20:35:31.662Z,87.71
2023-02-12T20:38:01.462Z,87.99
2023-02-12T20:40:36.356Z,87.80
2023-02-12T20:43:06.222Z,87.93
2023-02-12T20:45:38.008Z,88.49
2023-02-12T20:48:07.936Z,88.55
2023-02-12T20:50:37.928Z,88.47
2023-02-12T20:53:08.122Z,88.72
2023-02-12T20:55:40.712Z,88.96
2023-02-12T20:58:10.574Z,88.90
2023-02-12T21:00:40.560Z,89.06
2023-02-12T21:03:10.406Z,88.95
2023-02-12T21:05:40.431Z,88.88
2023-02-12T21:08:10.247Z,89.00
2023-02-12T21:10:42.959Z,89.33
2023-02-12T21:13:13.285Z,89.47
2023-02-12T21:15:43.498Z,89.47
2023-02-12T21:18:13.434Z,89.54
2023-02-12T21:20:43.645Z,89.39
2023-02-12T21:23:13.866Z,89.55
2023-02-12T21:25:46.457Z,89.54
2023-02-12T21:28:16.427Z,89.74
2023-02-12T21:30:46.472Z,89.45
2023-02-12T21:33:16.370Z,89.75
2023-02-12T21:35:46.441Z,89.50
2023-02-12T21:38:16.578Z,89.76
2023-02-12T21:40:49.128Z,90.09
2023-02-12T21:43:18.920Z,89.88
2023-02-12T21:45:56.620Z,89.99
2023-02-12T21:48:26.489Z,90.23
2023-02-12T21:50:56.473Z,90.28
2023-02-12T21:53:26.663Z,90.35
2023-02-12T21:55:59.330Z,90.38
2023-02-12T21:58:29.255Z,90.36
2023-02-12T22:01:00.091Z,90.53
2023-02-12T22:03:30.311Z,90.55
2023-02-12T22:06:03.103Z,90.44
2023-02-12T22:08:33.406Z,90.54
2023-02-12T22:11:09.200Z,90.49
2023-02-12T22:13:39.961Z,90.73
2023-02-12T22:16:13.837Z,90.47
2023-02-12T22:18:44.773Z,90.92
2023-02-12T22:21:17.377Z,90.50
2023-02-12T22:23:48.428Z,90.82
2023-02-12T22:26:22.556Z,90.36
2023-02-12T22:28:53.942Z,90.64
2023-02-12T22:31:26.325Z,90.49
2023-02-12T22:33:59.074Z,90.47
2023-02-12T22:36:29.569Z,90.54
2023-02-12T22:39:02.436Z,90.47
2023-02-12T22:41:35.540Z,90.53
2023-02-12T22:44:06.899Z,90.47
2023-02-12T22:46:36.788Z,90.54
2023-02-12T22:49:06.655Z,90.72
2023-02-12T22:51:39.610Z,90.88
2023-02-12T22:54:10.577Z,91.34
2023-02-12T22:56:43.470Z,90.98
2023-02-12T22:59:14.937Z,90.80
2023-02-12T23:01:45.209Z,90.68
2023-02-12T23:04:18.664Z,90.70
2023-02-12T23:06:49.438Z,90.94
2023-02-12T23:09:20.689Z,90.92
2023-02-12T23:11:53.078Z,91.02
2023-02-12T23:14:23.075Z,90.89
2023-02-12T23:16:52.862Z,90.56
2023-02-12T23:19:22.827Z,90.38
2023-02-12T23:21:52.577Z,90.30
2023-02-12T23:24:22.672Z,90.34
2023-02-12T23:26:55.285Z,90.20
2023-02-12T23:29:25.192Z,90.56
2023-02-12T23:31:55.052Z,90.64
2023-02-12T23:34:25.133Z,90.83
2023-02-12T23:36:54.869Z,90.86
2023-02-12T23:39:24.621Z,90.72
2023-02-12T23:41:56.941Z,91.09
2023-02-12T23:44:26.896Z,91.00
2023-02-12T23:46:56.797Z,90.82
2023-02-12T23:49:26.843Z,91.16
2023-02-12T23:51:56.946Z,90.86
2023-02-12T23:54:26.684Z,91.18
2023-02-12T23:56:59.110Z,91.05
2023-02-12T23:59:29.851Z,90.91
